createdAt,value
2022-10-19T06:19:43.156Z,101786.88
2022-10-19T06:22:20.817Z,101787.16
2022-10-19T06:24:57.815Z,101782.97
2022-10-19T06:27:36.291Z,101784.22
2022-10-19T06:30:15.207Z,101794.16
2022-10-19T06:32:52.538Z,101801.38
2022-10-19T06:35:31.900Z,101794.34
2022-10-19T06:38:08.900Z,101802.44
2022-10-19T06:40:45.587Z,101809.81
2022-10-19T06:43:22.564Z,101803.81
2022-10-19T06:45:59.529Z,101815.41
2022-10-19T06:48:36.900Z,101825.28
2022-10-19T06:51:16.209Z,101833.34
2022-10-19T06:53:56.615Z,101845.75
2022-10-19T06:56:33.690Z,101845.59
2022-10-19T06:59:13.502Z,101848.25
2022-10-19T07:01:51.535Z,101858.00
2022-10-19T07:04:28.642Z,101851.66
2022-10-19T07:07:08.009Z,101862.28
2022-10-19T07:09:45.245Z,101867.81
2022-10-19T07:12:22.067Z,101860.59
2022-10-19T07:14:59.355Z,101858.00
2022-10-19T07:17:36.329Z,101878.25
2022-10-19T07:20:14.920Z,101873.72
2022-10-19T07:22:54.530Z,101876.38
2022-10-19T07:25:31.669Z,101878.44
2022-10-19T07:28:08.898Z,101881.28
2022-10-19T07:30:46.579Z,101887.53
2022-10-19T07:33:23.206Z,101892.66
2022-10-19T07:36:04.329Z,101892.50
2022-10-19T07:38:44.306Z,101903.13
2022-10-19T07:41:26.207Z,101911.28
2022-10-19T07:44:04.544Z,101903.47
2022-10-19T07:46:42.853Z,101900.53
2022-10-19T07:49:21.080Z,101905.03
2022-10-19T07:51:59.284Z,101919.06
2022-10-19T07:54:38.667Z,101914.25
2022-10-19T07:57:15.815Z,101918.53
2022-10-19T07:59:52.574Z,101920.03
2022-10-19T08:02:39.449Z,101924.84
2022-10-19T08:05:26.362Z,101926.53
2022-10-19T08:08:03.369Z,101933.56
2022-10-19T08:10:42.711Z,101933.56
2022-10-19T08:13:19.670Z,101931.84
2022-10-19T08:15:56.440Z,101936.06
2022-10-19T08:18:34.030Z,101935.94
2022-10-19T08:21:10.855Z,101934.31
2022-10-19T08:23:47.943Z,101940.56
2022-10-19T08:26:27.464Z,101943.16
2022-10-19T08:29:04.906Z,101943.44
2022-10-19T08:31:43.045Z,101941.81
2022-10-19T08:34:20.763Z,101941.88
2022-10-19T08:36:57.593Z,101953.56
2022-10-19T08:39:35.063Z,101952.19
2022-10-19T08:42:20.352Z,101957.88
2022-10-19T08:48:33.275Z,101962.50
2022-10-19T08:51:10.741Z,101962.75
2022-10-19T08:53:55.791Z,101960.09
2022-10-19T08:56:50.579Z,101953.53
2022-10-19T08:59:43.715Z,101966.56
2022-10-19T09:02:33.443Z,101971.88
2022-10-19T09:05:19.797Z,101971.88
2022-10-19T09:07:57.981Z,101967.13
2022-10-19T09:10:38.587Z,101972.22
2022-10-19T09:13:29.205Z,101979.28
2022-10-19T09:16:19.078Z,101981.56
2022-10-19T09:18:56.388Z,101977.06
2022-10-19T09:21:47.286Z,101972.09
2022-10-19T09:24:35.240Z,101984.41
2022-10-19T09:27:21.876Z,101984.78
2022-10-19T09:30:02.868Z,101990.94
2022-10-19T09:32:43.367Z,101980.06
2022-10-19T09:35:32.058Z,101992.22
2022-10-19T09:38:10.388Z,101998.22
2022-10-19T09:40:48.294Z,101988.88
2022-10-19T09:43:25.778Z,102002.94
2022-10-19T09:46:18.749Z,102002.75
2022-10-19T09:49:02.369Z,102014.28
2022-10-19T09:51:54.136Z,102014.47
2022-10-19T09:54:38.027Z,102014.88
2022-10-19T09:57:24.918Z,102012.19
2022-10-19T10:00:01.999Z,102015.28
2022-10-19T10:02:41.456Z,102028.75
2022-10-19T10:05:21.997Z,102019.34
2022-10-19T10:07:59.827Z,102032.91
2022-10-19T10:10:46.127Z,102031.97
2022-10-19T10:13:28.387Z,102056.78
2022-10-19T10:16:08.086Z,102051.22
2022-10-19T10:18:58.040Z,102054.09
2022-10-19T10:21:49.157Z,102064.19
2022-10-19T10:24:28.525Z,102061.97
2022-10-19T10:27:08.866Z,102059.53
2022-10-19T10:29:59.416Z,102066.38
2022-10-19T10:32:44.407Z,102064.03
2022-10-19T10:35:28.716Z,102057.09
2022-10-19T10:38:21.528Z,102051.63
2022-10-19T10:41:03.189Z,102062.13
2022-10-19T10:43:52.996Z,102068.75
2022-10-19T10:46:35.816Z,102083.06
2022-10-19T10:49:23.765Z,102072.13
2022-10-19T10:52:03.755Z,102080.41
2022-10-19T10:54:43.228Z,102072.28
2022-10-19T10:57:24.445Z,102075.69
2022-10-19T11:00:08.436Z,102076.53
2022-10-19T11:02:52.919Z,102068.53
2022-10-19T11:05:34.232Z,102081.91
2022-10-19T11:08:22.101Z,102062.38
2022-10-19T11:11:10.032Z,102066.44
2022-10-19T11:13:53.948Z,102075.16
2022-10-19T11:16:37.156Z,102080.28
2022-10-19T11:19:18.761Z,102086.50
2022-10-19T11:22:06.296Z,102078.56
2022-10-19T11:24:59.494Z,102072.31
2022-10-19T11:27:53.769Z,102079.69
2022-10-19T11:30:34.082Z,102086.38
2022-10-19T11:33:20.813Z,102085.47
2022-10-19T11:36:01.631Z,102088.44
2022-10-19T11:38:55.714Z,102092.19
2022-10-19T11:41:41.765Z,102075.16
2022-10-19T11:44:42.375Z,102081.34
2022-10-19T11:47:44.215Z,102081.34
2022-10-19T11:50:37.794Z,102079.63
2022-10-19T11:53:27.860Z,102079.88
2022-10-19T11:56:12.839Z,102103.03
2022-10-19T11:59:05.909Z,102105.94
2022-10-19T12:01:59.924Z,102100.22
2022-10-19T12:04:55.784Z,102104.78
2022-10-19T12:08:01.899Z,102096.78
2022-10-19T12:10:48.888Z,102097.00
2022-10-19T12:13:34.899Z,102097.41
2022-10-19T12:16:14.550Z,102110.63
2022-10-19T12:18:58.769Z,102108.72
2022-10-19T12:21:41.080Z,102114.16
2022-10-19T12:24:21.800Z,102114.66
2022-10-19T12:27:00.424Z,102101.81
2022-10-19T12:29:42.970Z,102119.00
2022-10-19T12:32:27.019Z,102113.41
2022-10-19T12:35:20.911Z,102117.09
2022-10-19T12:38:07.521Z,102116.03
2022-10-19T12:40:53.898Z,102110.16
2022-10-19T12:43:42.096Z,102111.03
2022-10-19T12:46:32.610Z,102121.69
2022-10-19T12:49:46.435Z,102107.88
2022-10-19T12:52:44.793Z,102123.50
2022-10-19T12:55:35.219Z,102117.28
2022-10-19T12:58:26.202Z,102125.19
2022-10-19T13:01:05.728Z,102135.56
2022-10-19T13:03:47.339Z,102122.25
2022-10-19T13:06:37.232Z,102125.56
2022-10-19T13:09:35.131Z,102119.53
2022-10-19T13:12:32.342Z,102127.34
2022-10-19T13:15:30.071Z,102128.28
2022-10-19T13:18:08.530Z,102129.34
2022-10-19T13:21:02.454Z,102144.50
2022-10-19T13:23:45.640Z,102134.69
2022-10-19T13:26:36.969Z,102138.56
2022-10-19T13:29:29.814Z,102138.41
2022-10-19T13:32:47.380Z,102138.00
2022-10-19T13:35:35.753Z,102152.66
2022-10-19T13:38:29.004Z,102152.03
2022-10-19T13:41:26.627Z,102164.53
2022-10-19T13:44:22.070Z,102165.66
2022-10-19T13:47:40.854Z,102170.47
2022-10-19T13:50:35.631Z,102173.88
2022-10-19T13:53:31.889Z,102182.84
2022-10-19T13:56:40.247Z,102194.91
2022-10-19T14:00:07.553Z,102189.81
2022-10-19T14:03:20.982Z,102188.16
2022-10-19T14:06:21.324Z,102189.34
2022-10-19T14:09:49.701Z,102192.78
2022-10-19T14:12:29.450Z,102199.75
2022-10-19T14:15:25.202Z,102193.34
2022-10-19T14:18:05.830Z,102200.56
2022-10-19T14:20:43.503Z,102202.94
2022-10-19T14:23:23.521Z,102194.25
2022-10-19T14:26:02.752Z,102206.53
2022-10-19T14:28:40.467Z,102195.41
2022-10-19T14:31:25.608Z,102195.41
2022-10-19T14:34:06.080Z,102202.06
2022-10-19T14:36:48.297Z,102196.00
2022-10-19T14:39:35.389Z,102207.22
2022-10-19T14:42:14.891Z,102208.38
2022-10-19T14:44:51.960Z,102205.25
2022-10-19T14:47:31.241Z,102210.75
2022-10-19T14:50:10.155Z,102209.25
2022-10-19T14:52:47.114Z,102210.47
2022-10-19T14:55:25.254Z,102203.81
2022-10-19T14:58:02.354Z,102212.09
2022-10-19T15:00:40.223Z,102199.91
2022-10-19T15:03:27.424Z,102201.88
2022-10-19T15:06:08.885Z,102195.97
2022-10-19T15:08:49.760Z,102203.78
2022-10-19T15:11:32.116Z,102210.00
2022-10-19T15:14:16.369Z,102198.59
2022-10-19T15:16:57.600Z,102208.81
2022-10-19T15:19:45.129Z,102213.72
2022-10-19T15:22:26.888Z,102212.47
2022-10-19T15:25:33.197Z,102208.19
2022-10-19T15:28:39.117Z,102212.31
2022-10-19T15:31:23.927Z,102218.19
2022-10-19T15:34:05.599Z,102216.00
2022-10-19T15:36:59.214Z,102226.22
2022-10-19T15:39:42.109Z,102227.41
2022-10-19T15:42:41.249Z,102230.16
2022-10-19T15:45:38.447Z,102236.06
2022-10-19T15:48:31.858Z,102239.25
2022-10-19T15:51:28.747Z,102230.03
2022-10-19T15:54:10.067Z,102233.72
2022-10-19T15:56:50.677Z,102230.09
2022-10-19T15:59:27.552Z,102238.53
2022-10-19T16:02:05.739Z,102237.16
2022-10-19T16:04:42.358Z,102244.50
2022-10-19T16:07:24.127Z,102245.03
2022-10-19T16:10:03.513Z,102249.81
2022-10-19T16:12:41.165Z,102251.13
2022-10-19T16:15:23.030Z,102259.53
2022-10-19T16:18:03.345Z,102258.72
2022-10-19T16:20:41.081Z,102257.00
2022-10-19T16:23:21.886Z,102260.72
2022-10-19T16:26:01.297Z,102270.28
2022-10-19T16:28:39.609Z,102268.56
2022-10-19T16:31:17.346Z,102276.50
2022-10-19T16:33:55.667Z,102280.13
2022-10-19T16:36:33.103Z,102284.47
2022-10-19T16:39:10.714Z,102288.09
2022-10-19T16:41:51.793Z,102295.09
2022-10-19T16:44:29.408Z,102277.91
2022-10-19T16:47:07.125Z,102277.28
2022-10-19T16:49:46.662Z,102278.47
2022-10-19T16:52:24.111Z,102276.91
2022-10-19T16:55:01.783Z,102273.63
2022-10-19T16:57:42.063Z,102275.66
2022-10-19T17:00:20.080Z,102279.66
2022-10-19T17:02:57.297Z,102282.50
2022-10-19T17:05:35.111Z,102280.13
2022-10-19T17:08:14.115Z,102287.28
2022-10-19T17:10:52.905Z,102286.78
2022-10-19T17:13:32.986Z,102306.66
2022-10-19T17:16:14.094Z,102306.00
2022-10-19T17:18:53.120Z,102308.66
2022-10-19T17:21:37.798Z,102300.78
2022-10-19T17:24:22.222Z,102312.38
2022-10-19T17:27:04.628Z,102310.78
2022-10-19T17:29:46.135Z,102317.81
2022-10-19T17:32:25.424Z,102316.97
2022-10-19T17:35:04.434Z,102319.69
2022-10-19T17:37:44.384Z,102316.97
2022-10-19T17:40:22.177Z,102325.69
2022-10-19T17:43:00.244Z,102328.44
2022-10-19T17:45:40.903Z,102327.44
2022-10-19T17:48:18.613Z,102336.16
2022-10-19T17:51:02.143Z,102325.69
2022-10-19T17:53:40.483Z,102327.44
2022-10-19T17:56:20.591Z,102317.59
2022-10-19T17:59:01.033Z,102332.44
2022-10-19T18:01:41.904Z,102327.13
2022-10-19T18:04:19.818Z,102327.13
2022-10-19T18:06:58.758Z,102334.31
2022-10-19T18:09:36.997Z,102339.72
2022-10-19T18:12:16.296Z,102333.59
2022-10-19T18:14:56.924Z,102341.47
2022-10-19T18:17:37.275Z,102343.34
2022-10-19T18:20:15.875Z,102348.91
2022-10-19T18:22:54.392Z,102342.38
2022-10-19T18:25:53.065Z,102332.75
2022-10-19T18:28:34.112Z,102339.94
2022-10-19T18:31:14.593Z,102339.13
2022-10-19T18:34:01.326Z,102331.97
2022-10-19T18:36:39.544Z,102351.44
2022-10-19T18:39:19.426Z,102342.72
2022-10-19T18:41:59.397Z,102337.41
2022-10-19T18:44:37.710Z,102344.44
2022-10-19T18:47:16.302Z,102335.53
2022-10-19T18:49:58.605Z,102342.56
2022-10-19T18:52:39.714Z,102346.00
2022-10-19T18:55:18.294Z,102349.63
2022-10-19T18:57:56.204Z,102348.94
2022-10-19T19:00:33.852Z,102351.44
2022-10-19T19:03:11.588Z,102347.88
2022-10-19T19:05:51.737Z,102358.34
2022-10-19T19:08:29.862Z,102353.91
2022-10-19T19:11:14.861Z,102352.91
2022-10-19T19:13:54.550Z,102347.63
2022-10-19T19:16:33.870Z,102352.09
2022-10-19T19:19:17.431Z,102352.91
2022-10-19T19:21:58.894Z,102347.63
2022-10-19T19:24:37.058Z,102350.41
2022-10-19T19:27:14.947Z,102359.34
2022-10-19T19:29:54.315Z,102350.00
2022-10-19T19:32:32.724Z,102355.28
2022-10-19T19:35:11.377Z,102360.88
2022-10-19T19:37:51.821Z,102360.28
2022-10-19T19:40:32.246Z,102357.84
2022-10-19T19:43:09.910Z,102360.81
2022-10-19T19:45:51.089Z,102354.06
2022-10-19T19:48:28.719Z,102364.59
2022-10-19T19:51:06.859Z,102369.34
2022-10-19T19:53:47.841Z,102364.25
2022-10-19T19:56:26.052Z,102374.13
2022-10-19T19:59:07.064Z,102373.16
2022-10-19T20:01:46.809Z,102373.16
2022-10-19T20:04:24.519Z,102369.72
